Forest, Louisiana
Current Conditions -  °F | °C
As of 1:55 AM on Saturday 25 Oct 2014 (Local Time) from KBQP Reporting Station
Haze Haze  
Wind Chill: 49°   Ceiling: 500
Heat Index: 49°   Visibility: 0.75mi
Dew Point: 49°   Wind: 0mph
Humidity: 98%   Direction: NA
Pressure: 30.13"   Gusts: NA
Location:  32.79°N, 91.41°W
Report Text: KBQP 250655Z AUTO 00000KT 3/4SM BR VV005 10/09 A3013 RMK AO2 T00970094
Loading
Personal Weather Stations






























Interactive Weather Map
Tropical Storm Tracking
New forecast layout! Learn more

10-Day Weather Forecast

Advertisements
Track Severe Weather on mobile